Time;durP1;ratioP1;P1;durP2;ratioP2;P2;SDS_P1;SDS_P2;PMS_P1;PMS_P2;Temp;Humidity;BMP_temperature;BMP_pressure;BME280_temperature;BME280_humidity;BME280_pressure;Samples;Min_cycle;Max_cycle;Signal;HPM_P1;HPM_P2
2024/01/16 00:01:24;;;;;;;;;;;;;;;-3.08;79.42;100089.41;4987888;28;20033;-81
2024/01/16 00:03:57;;;;;;;0.10;0.10;;;;;;;-3.52;78.88;100032.22;4995694;28;19910;-81
2024/01/16 00:06:25;;;;;;;0.10;0.10;;;;;;;-3.48;79.25;100029.19;4994671;28;20053;-81
2024/01/16 00:09:03;;;;;;;0.00;0.00;;;;;;;-3.43;79.47;100035.66;4994514;28;20022;-84
2024/01/16 00:11:28;;;;;;;0.10;0.10;;;;;;;-3.34;80.21;100039.88;4976924;28;20094;-83
2024/01/16 00:13:54;;;;;;;0.00;0.00;;;;;;;-3.41;79.43;100030.13;4989164;28;20080;-83
2024/01/16 00:16:24;;;;;;;0.10;0.10;;;;;;;-3.36;79.77;100049.94;4998244;28;20018;-82
2024/01/16 00:18:49;;;;;;;0.10;0.10;;;;;;;-3.58;79.39;100030.28;4973771;28;20038;-84
2024/01/16 00:21:22;;;;;;;0.00;0.00;;;;;;;-3.62;80.13;100022.81;4986765;28;20091;-84
2024/01/16 00:23:48;;;;;;;0.10;0.10;;;;;;;-3.42;79.49;100056.00;4994245;28;20014;-84
2024/01/16 00:26:21;;;;;;;0.10;0.10;;;;;;;-3.65;80.35;100029.38;4987134;28;20482;-83
2024/01/16 00:28:46;;;;;;;0.10;0.10;;;;;;;-3.56;80.51;100054.16;5005484;28;20117;-84
2024/01/16 00:31:14;;;;;;;0.10;0.10;;;;;;;-3.55;79.68;100061.16;4980218;28;20506;-83
2024/01/16 00:33:39;;;;;;;0.00;0.00;;;;;;;-3.57;80.02;100065.88;4972984;28;20389;-84
2024/01/16 00:36:08;;;;;;;0.10;0.10;;;;;;;-3.81;79.86;100027.69;4998359;28;20037;-84
2024/01/16 00:38:34;;;;;;;0.00;0.00;;;;;;;-3.65;80.32;100061.44;5000899;28;20053;-84
2024/01/16 00:40:59;;;;;;;0.10;0.10;;;;;;;-3.82;80.56;100034.03;4967288;28;20104;-83
2024/01/16 00:43:25;;;;;;;0.10;0.10;;;;;;;-3.72;79.99;100041.78;4991468;28;20036;-83
2024/01/16 00:45:50;;;;;;;0.10;0.10;;;;;;;-3.92;80.17;100006.75;4967748;28;20027;-84
2024/01/16 00:48:21;;;;;;;0.10;0.10;;;;;;;-3.98;79.97;100000.28;4990997;28;20033;-79
2024/01/16 00:50:49;;;;;;;0.10;0.10;;;;;;;-3.88;80.56;100011.53;4982551;28;20468;-76
2024/01/16 01:00:27;;;;;;;0.10;0.10;;;;;;;-3.81;81.36;100038.38;4940493;29;20042;-82
2024/01/16 01:02:53;;;;;;;0.10;0.10;;;;;;;-3.93;81.56;100019.28;4992181;28;20049;-80
2024/01/16 01:05:20;;;;;;;0.10;0.10;;;;;;;-4.17;81.87;99998.13;5014194;28;20021;-80
2024/01/16 01:07:48;;;;;;;0.10;0.10;;;;;;;-4.19;82.12;100005.47;5008471;28;20120;-80
2024/01/16 01:10:14;;;;;;;0.10;0.10;;;;;;;-4.17;82.42;100017.66;4984554;28;21310;-80
2024/01/16 01:12:39;;;;;;;0.10;0.10;;;;;;;-4.24;82.54;100009.50;4972599;28;20025;-79
2024/01/16 01:15:08;;;;;;;0.10;0.10;;;;;;;-3.99;83.21;100048.53;4969066;28;20015;-80
2024/01/16 01:17:35;;;;;;;0.00;0.00;;;;;;;-3.93;82.95;100048.66;5005105;28;20048;-81
2024/01/16 01:20:01;;;;;;;0.10;0.10;;;;;;;-3.82;83.87;100050.06;4971396;28;20033;-74
2024/01/16 01:22:27;;;;;;;0.10;0.10;;;;;;;-3.77;83.72;100034.31;4994903;28;20002;-75
2024/01/16 01:24:52;;;;;;;0.10;0.10;;;;;;;-3.64;83.76;100047.03;4983775;28;20121;-75
2024/01/16 01:27:17;;;;;;;0.10;0.10;;;;;;;-3.49;84.37;100049.72;4988202;28;20466;-75
2024/01/16 01:30:09;;;;;;;0.10;0.10;;;;;;;-3.76;84.04;100000.41;5002916;28;20029;-74
2024/01/16 01:32:35;;;;;;;0.10;0.10;;;;;;;-3.71;83.87;100009.53;5001162;28;20037;-74
2024/01/16 01:35:00;;;;;;;0.00;0.00;;;;;;;-3.64;84.14;100022.16;4989443;28;20038;-75
2024/01/16 01:37:25;;;;;;;0.10;0.10;;;;;;;-3.55;83.75;100037.09;4973888;28;20037;-75
2024/01/16 01:39:51;;;;;;;0.00;0.00;;;;;;;-3.61;84.10;100024.47;4985467;28;20033;-75
2024/01/16 01:42:16;;;;;;;0.10;0.10;;;;;;;-3.63;83.67;100013.16;4960545;28;20021;-75
2024/01/16 01:44:42;;;;;;;0.10;0.10;;;;;;;-3.66;83.69;100005.47;4980416;28;20037;-83
2024/01/16 01:47:08;;;;;;;0.10;0.10;;;;;;;-3.40;84.20;100035.28;4969501;28;20037;-80
2024/01/16 01:49:38;;;;;;;0.00;0.00;;;;;;;-3.69;83.71;99979.97;4980790;28;20014;-78
2024/01/16 01:52:04;;;;;;;0.00;0.00;;;;;;;-3.42;83.67;100029.25;4980819;28;20025;-80
2024/01/16 01:54:32;;;;;;;0.10;0.10;;;;;;;-3.36;83.37;100028.56;4997274;28;20086;-78
2024/01/16 01:56:57;;;;;;;0.10;0.10;;;;;;;-3.39;82.96;100034.28;4985026;28;20022;-79
2024/01/16 01:59:24;;;;;;;0.10;0.10;;;;;;;-3.40;83.56;100027.25;4991830;28;20064;-78
2024/01/16 02:01:54;;;;;;;0.10;0.10;;;;;;;-3.75;83.08;99972.66;4995571;28;20711;-79
2024/01/16 02:04:21;;;;;;;0.10;0.10;;;;;;;-3.35;83.89;100030.19;4990183;28;20113;-79
2024/01/16 02:06:49;;;;;;;0.10;0.10;;;;;;;-3.40;83.64;100037.94;4997701;28;20025;-79
2024/01/16 02:09:15;;;;;;;0.00;0.00;;;;;;;-3.47;83.54;100030.84;5014545;28;20052;-79
2024/01/16 02:11:41;;;;;;;0.10;0.10;;;;;;;-3.52;83.01;100023.38;4976302;28;20034;-78
2024/01/16 02:14:06;;;;;;;0.10;0.10;;;;;;;-3.56;83.09;100028.25;4975783;28;20034;-78
2024/01/16 02:16:44;;;;;;;0.00;0.00;;;;;;;-3.57;83.42;100031.13;4978327;28;20057;-77
2024/01/16 02:19:10;;;;;;;0.00;0.00;;;;;;;-3.59;83.43;100027.78;5008612;28;20526;-79
2024/01/16 02:21:50;;;;;;;0.10;0.10;;;;;;;-3.59;84.27;100033.97;4998118;28;20108;-79
2024/01/16 02:24:17;;;;;;;0.00;0.00;;;;;;;-3.55;83.69;100034.44;4982768;28;20030;-79
2024/01/16 02:26:44;;;;;;;0.00;0.00;;;;;;;-3.67;84.02;100025.22;4993193;28;20005;-79
2024/01/16 02:29:12;;;;;;;0.10;0.10;;;;;;;-3.85;83.63;100007.69;4985037;28;20050;-81
2024/01/16 02:31:38;;;;;;;0.10;0.10;;;;;;;-3.86;84.15;100028.19;4995841;28;20049;-80
2024/01/16 02:34:04;;;;;;;0.00;0.00;;;;;;;-3.90;84.28;100020.75;4968843;28;20042;-79
2024/01/16 02:36:30;;;;;;;0.10;0.10;;;;;;;-3.93;84.30;100010.41;4985114;28;20038;-80
2024/01/16 02:38:55;;;;;;;0.10;0.10;;;;;;;-3.86;84.03;100016.69;4972825;28;20083;-78
2024/01/16 02:41:20;;;;;;;0.00;0.00;;;;;;;-3.76;84.52;100021.78;4982737;28;20536;-79
2024/01/16 02:43:46;;;;;;;0.10;0.10;;;;;;;-3.63;84.33;100023.84;4980107;28;20034;-78
2024/01/16 02:46:13;;;;;;;0.10;0.10;;;;;;;-3.59;84.37;100025.09;4984750;28;20101;-79
2024/01/16 02:48:42;;;;;;;0.10;0.10;;;;;;;-3.60;83.91;100010.09;5000835;28;20052;-79
2024/01/16 02:51:08;;;;;;;0.00;0.00;;;;;;;-3.45;84.47;100018.94;4978554;28;20034;-79
2024/01/16 02:53:34;;;;;;;0.00;0.00;;;;;;;-3.39;83.67;100023.56;4980189;28;20026;-79
2024/01/16 02:55:59;;;;;;;0.00;0.00;;;;;;;-3.33;84.28;100006.78;4989433;28;20062;-77
2024/01/16 02:58:26;;;;;;;0.00;0.00;;;;;;;-3.30;84.21;100010.09;4974575;28;20069;-78
2024/01/16 03:00:52;;;;;;;0.10;0.10;;;;;;;-3.36;83.28;100007.16;4971249;28;20421;-80
2024/01/16 03:03:18;;;;;;;0.00;0.00;;;;;;;-3.35;83.37;100003.44;4980593;28;20022;-80
2024/01/16 03:05:44;;;;;;;0.08;0.08;;;;;;;-3.46;83.17;99990.56;4980277;28;20022;-78
2024/01/16 03:08:09;;;;;;;0.10;0.10;;;;;;;-3.50;83.94;99983.94;4959819;28;20061;-78
2024/01/16 03:10:35;;;;;;;0.00;0.00;;;;;;;-3.44;83.59;99977.84;4980326;28;20499;-78
2024/01/16 03:13:00;;;;;;;0.10;0.10;;;;;;;-3.37;83.15;99993.97;4988897;28;20400;-78
2024/01/16 03:15:26;;;;;;;0.10;0.10;;;;;;;-3.33;83.61;99995.25;4971467;28;20121;-78
2024/01/16 03:17:51;;;;;;;0.00;0.00;;;;;;;-3.36;83.66;99990.25;4952190;28;20029;-78
2024/01/16 03:20:20;;;;;;;0.10;0.10;;;;;;;-3.39;83.40;99979.94;4969357;28;20141;-74
2024/01/16 03:22:45;;;;;;;0.10;0.10;;;;;;;-3.43;83.99;99968.81;4972196;28;20011;-74
2024/01/16 03:25:14;;;;;;;0.00;0.00;;;;;;;-3.43;83.94;99979.50;4975883;28;20042;-74
2024/01/16 03:27:42;;;;;;;0.00;0.00;;;;;;;-3.66;84.05;99952.00;5000979;28;20465;-76
2024/01/16 03:30:08;;;;;;;0.00;0.00;;;;;;;-3.58;83.50;99970.66;4993068;28;20043;-73
2024/01/16 03:32:35;;;;;;;0.00;0.00;;;;;;;-3.81;83.94;99955.53;4978118;28;20022;-75
2024/01/16 03:35:00;;;;;;;0.10;0.10;;;;;;;-3.71;84.32;99977.47;4992454;28;20022;-75
2024/01/16 03:37:26;;;;;;;0.10;0.10;;;;;;;-3.90;84.27;99951.28;4983581;28;20484;-74
2024/01/16 03:39:51;;;;;;;0.10;0.10;;;;;;;-3.86;84.12;99957.91;4972306;28;20037;-75
2024/01/16 03:42:17;;;;;;;0.10;0.10;;;;;;;-4.05;83.90;99941.41;4983762;28;20026;-79
2024/01/16 03:44:43;;;;;;;0.00;0.00;;;;;;;-3.96;84.49;99952.00;4974533;28;20079;-79
2024/01/16 03:47:11;;;;;;;0.10;0.10;;;;;;;-4.03;84.38;99952.75;4985341;28;20052;-78
2024/01/16 03:49:37;;;;;;;0.00;0.00;;;;;;;-4.16;84.56;99925.84;4988462;28;20030;-79
2024/01/16 03:52:02;;;;;;;0.00;0.00;;;;;;;-4.12;84.92;99931.63;4951689;28;20063;-80
2024/01/16 03:54:28;;;;;;;0.00;0.00;;;;;;;-4.04;84.78;99952.94;4993464;28;20034;-81
2024/01/16 03:57:04;;;;;;;0.10;0.10;;;;;;;-3.98;84.88;99959.41;4967327;28;20380;-77
2024/01/16 03:59:31;;;;;;;0.10;0.10;;;;;;;-4.31;84.54;99912.44;5009277;28;20026;-78
2024/01/16 04:02:05;;;;;;;0.10;0.10;;;;;;;-4.30;85.31;99897.28;4997569;28;20030;-80
2024/01/16 04:04:37;;;;;;;0.10;0.10;;;;;;;-3.94;84.98;99952.66;5013450;28;20106;-80
2024/01/16 04:07:03;;;;;;;0.00;0.00;;;;;;;-4.12;84.79;99899.59;4996601;28;20022;-80
2024/01/16 04:09:29;;;;;;;0.10;0.10;;;;;;;-4.09;84.94;99909.91;4999995;28;20030;-74
2024/01/16 04:12:02;;;;;;;0.10;0.10;;;;;;;-4.19;85.23;99887.97;5000766;28;20452;-75
2024/01/16 04:14:27;;;;;;;0.00;0.00;;;;;;;-4.12;84.99;99905.75;4990960;28;20092;-74
2024/01/16 04:16:52;;;;;;;0.10;0.10;;;;;;;-4.01;85.70;99922.38;5007002;28;20033;-76
2024/01/16 04:19:20;;;;;;;0.10;0.10;;;;;;;-4.04;85.11;99929.72;4980448;28;20030;-74
2024/01/16 04:21:46;;;;;;;0.10;0.10;;;;;;;-4.16;86.22;99914.31;4987466;28;20040;-76
2024/01/16 04:24:13;;;;;;;0.10;0.10;;;;;;;-4.18;85.95;99919.03;4994408;28;20038;-74
2024/01/16 04:26:41;;;;;;;0.10;0.10;;;;;;;-4.13;85.55;99936.16;5007166;28;20018;-75
2024/01/16 04:29:08;;;;;;;0.10;0.10;;;;;;;-4.47;86.00;99876.06;5002646;28;20395;-74
2024/01/16 04:31:40;;;;;;;0.10;0.10;;;;;;;-4.42;85.93;99887.03;4996870;28;20441;-75
2024/01/16 04:34:08;;;;;;;0.00;0.00;;;;;;;-4.27;86.28;99912.94;4987382;28;20407;-77
2024/01/16 04:36:33;;;;;;;0.10;0.10;;;;;;;-4.34;86.16;99909.31;4997917;28;20026;-74
2024/01/16 04:38:59;;;;;;;0.10;0.10;;;;;;;-4.50;86.47;99886.28;4986708;28;20411;-76
2024/01/16 04:41:24;;;;;;;0.10;0.10;;;;;;;-4.56;86.72;99883.34;5000758;28;20025;-75
2024/01/16 04:43:52;;;;;;;0.10;0.10;;;;;;;-4.60;86.84;99887.38;4988318;28;20037;-75
2024/01/16 04:46:18;;;;;;;0.10;0.10;;;;;;;-4.66;86.93;99884.59;4973877;28;20022;-75
2024/01/16 04:48:43;;;;;;;0.10;0.10;;;;;;;-4.66;87.05;99895.25;4997804;28;20054;-76
2024/01/16 04:51:08;;;;;;;0.00;0.00;;;;;;;-4.71;87.00;99911.00;4984776;28;20049;-74
2024/01/16 04:53:34;;;;;;;0.10;0.10;;;;;;;-4.81;87.54;99901.38;4995268;28;20052;-76
2024/01/16 04:56:01;;;;;;;0.10;0.10;;;;;;;-5.01;87.66;99876.19;4975999;28;20036;-77
2024/01/16 04:58:26;;;;;;;0.00;0.00;;;;;;;-5.00;87.69;99875.19;5011106;28;20030;-77
2024/01/16 05:00:52;;;;;;;0.10;0.10;;;;;;;-4.99;87.74;99871.53;4972240;28;20036;-74
2024/01/16 05:03:17;;;;;;;0.00;0.00;;;;;;;-5.08;87.96;99860.09;5011920;28;20102;-75
2024/01/16 05:05:43;;;;;;;0.10;0.10;;;;;;;-5.13;88.19;99854.44;4958731;28;20164;-76
2024/01/16 05:08:08;;;;;;;0.10;0.10;;;;;;;-4.98;87.83;99878.50;5011828;28;20105;-74
2024/01/16 05:10:34;;;;;;;0.00;0.00;;;;;;;-4.93;88.06;99892.16;4990510;28;20010;-76
2024/01/16 05:12:59;;;;;;;0.10;0.10;;;;;;;-5.04;88.35;99879.22;4988933;28;20046;-84
2024/01/16 05:15:25;;;;;;;0.10;0.10;;;;;;;-4.92;88.38;99893.78;4972239;28;20469;-75
2024/01/16 05:17:50;;;;;;;0.10;0.10;;;;;;;-5.04;88.03;99868.53;4996880;28;20033;-76
2024/01/16 05:20:16;;;;;;;0.10;0.10;;;;;;;-5.09;88.23;99872.56;4989577;28;20030;-74
2024/01/16 05:22:43;;;;;;;0.00;0.00;;;;;;;-5.02;88.05;99888.69;4992041;28;20052;-77
2024/01/16 05:25:09;;;;;;;0.00;0.00;;;;;;;-5.14;88.63;99880.28;4977858;28;20031;-75
2024/01/16 05:27:34;;;;;;;0.10;0.10;;;;;;;-5.22;88.22;99867.00;4984295;28;20117;-75
2024/01/16 05:30:00;;;;;;;0.10;0.10;;;;;;;-5.25;88.54;99872.69;4978867;28;20050;-75
2024/01/16 05:32:26;;;;;;;0.10;0.10;;;;;;;-5.35;88.65;99856.09;4998401;28;20006;-75
2024/01/16 05:34:52;;;;;;;0.00;0.00;;;;;;;-5.26;88.44;99876.34;5018544;28;20049;-74
2024/01/16 05:37:17;;;;;;;0.10;0.10;;;;;;;-5.32;88.29;99879.72;4985050;28;20066;-75
2024/01/16 05:39:43;;;;;;;0.10;0.10;;;;;;;-5.35;88.51;99874.75;4976835;28;20128;-72
2024/01/16 05:42:11;;;;;;;0.10;0.10;;;;;;;-5.48;88.98;99854.81;5000367;28;20022;-74
2024/01/16 05:44:38;;;;;;;0.10;0.10;;;;;;;-5.40;88.68;99864.63;4993763;28;20108;-74
2024/01/16 05:47:03;;;;;;;0.00;0.00;;;;;;;-5.41;89.25;99862.94;5006140;28;20030;-74
2024/01/16 05:49:29;;;;;;;0.00;0.00;;;;;;;-5.44;88.84;99858.78;4992557;28;20032;-74
2024/01/16 05:51:54;;;;;;;0.00;0.00;;;;;;;-5.47;89.05;99853.81;4973922;28;21054;-74
2024/01/16 05:54:20;;;;;;;0.10;0.10;;;;;;;-5.49;89.46;99849.66;4991994;28;20121;-74
2024/01/16 05:56:46;;;;;;;0.00;0.00;;;;;;;-5.56;89.10;99838.91;4993572;28;20479;-76
2024/01/16 05:59:11;;;;;;;0.00;0.00;;;;;;;-5.48;89.03;99846.81;4991049;28;20120;-75
2024/01/16 06:01:37;;;;;;;0.10;0.10;;;;;;;-5.58;89.13;99835.56;4987810;28;20032;-75
2024/01/16 06:04:03;;;;;;;0.00;0.00;;;;;;;-5.60;89.50;99832.25;4966799;28;20033;-75
2024/01/16 06:06:28;;;;;;;0.10;0.10;;;;;;;-5.54;89.13;99834.22;4990842;28;20076;-73
2024/01/16 06:08:56;;;;;;;0.00;0.00;;;;;;;-5.64;89.69;99820.28;4988513;28;20033;-75
2024/01/16 06:11:32;;;;;;;0.10;0.10;;;;;;;-5.52;89.13;99837.56;5007600;28;20042;-73
2024/01/16 06:13:58;;;;;;;0.10;0.10;;;;;;;-5.47;89.17;99842.34;4983029;28;20057;-75
2024/01/16 06:16:24;;;;;;;0.10;0.10;;;;;;;-5.46;89.02;99839.50;4989713;28;20378;-76
2024/01/16 06:18:50;;;;;;;0.10;0.10;;;;;;;-5.45;89.58;99843.84;4967042;28;20030;-76
2024/01/16 06:21:33;;;;;;;0.10;0.10;;;;;;;-5.57;88.72;99826.56;4997688;28;20121;-76
2024/01/16 06:24:00;;;;;;;0.10;0.10;;;;;;;-5.50;89.31;99835.53;4993692;28;20034;-76
2024/01/16 06:26:26;;;;;;;0.10;0.10;;;;;;;-5.67;89.63;99812.66;4991678;28;20034;-76
2024/01/16 06:28:51;;;;;;;0.00;0.00;;;;;;;-5.67;89.29;99809.97;4991116;28;20378;-75
2024/01/16 06:31:24;;;;;;;0.00;0.00;;;;;;;-5.61;89.87;99823.44;4970632;28;20036;-78
2024/01/16 06:33:50;;;;;;;0.10;0.10;;;;;;;-5.69;89.68;99807.50;4977612;28;20528;-76
2024/01/16 06:36:17;;;;;;;0.10;0.10;;;;;;;-5.65;89.79;99822.13;4989610;28;20018;-75
2024/01/16 06:38:43;;;;;;;0.10;0.10;;;;;;;-5.84;89.43;99799.44;4979498;28;20037;-77
2024/01/16 06:41:08;;;;;;;0.10;0.10;;;;;;;-5.81;89.97;99804.41;5006680;28;20128;-75
2024/01/16 06:43:34;;;;;;;0.10;0.10;;;;;;;-5.99;90.10;99771.91;5003426;28;20048;-76
2024/01/16 06:45:59;;;;;;;0.00;0.00;;;;;;;-5.80;90.48;99800.75;4994072;28;20101;-76
2024/01/16 06:48:26;;;;;;;0.10;0.10;;;;;;;-5.63;90.52;99813.97;4963920;28;20038;-76
2024/01/16 06:51:04;;;;;;;0.10;0.10;;;;;;;-5.85;89.91;99772.97;4983417;28;20030;-77
2024/01/16 06:53:30;;;;;;;0.10;0.10;;;;;;;-5.65;90.43;99786.66;4979023;28;20038;-78
2024/01/16 06:55:55;;;;;;;0.00;0.00;;;;;;;-5.53;89.80;99789.75;5008861;28;20108;-79
2024/01/16 06:58:43;;;;;;;0.10;0.10;;;;;;;-5.34;89.59;99820.44;4984493;28;20077;-78
2024/01/16 07:01:09;;;;;;;0.00;0.00;;;;;;;-5.29;89.94;99823.41;4980428;28;20053;-78
2024/01/16 07:03:35;;;;;;;0.10;0.10;;;;;;;-5.39;90.00;99796.97;4986010;28;20121;-77
2024/01/16 07:06:00;;;;;;;0.10;0.10;;;;;;;-5.40;90.35;99792.66;4989671;28;20025;-75
2024/01/16 07:08:56;;;;;;;0.10;0.10;;;;;;;-5.54;89.80;99767.59;4981341;28;19998;-79
2024/01/16 07:11:22;;;;;;;0.10;0.10;;;;;;;-5.37;90.51;99792.31;4985481;28;20023;-79
2024/01/16 07:14:21;;;;;;;0.10;0.10;;;;;;;-5.18;90.22;99830.13;4998342;28;20402;-78
2024/01/16 07:16:49;;;;;;;0.10;0.10;;;;;;;-5.32;90.67;99808.59;4974623;28;20041;-78
2024/01/16 07:19:15;;;;;;;0.10;0.10;;;;;;;-5.43;90.86;99796.50;4985480;28;20100;-78
2024/01/16 07:21:40;;;;;;;0.10;0.10;;;;;;;-5.51;91.07;99783.22;4983206;28;20037;-77
2024/01/16 07:24:24;;;;;;;;;;;;;;;;;;;;;
2024/01/16 07:27:00;;;;;;;0.10;0.10;;;;;;;-5.79;91.66;99742.97;4993389;28;20548;-79
2024/01/16 07:29:26;;;;;;;0.00;0.00;;;;;;;-5.74;91.54;99745.09;4990879;28;20117;-78
2024/01/16 07:32:18;;;;;;;0.10;0.10;;;;;;;-5.72;91.37;99735.09;4981706;28;20436;-77
2024/01/16 07:34:54;;;;;;;0.10;0.10;;;;;;;-5.66;91.99;99745.06;4974395;28;20381;-76
2024/01/16 07:37:24;;;;;;;0.00;0.00;;;;;;;-5.61;91.73;99756.00;4982384;28;20464;-77
2024/01/16 07:40:09;;;;;;;0.10;0.10;;;;;;;-5.68;92.15;99747.03;4998913;28;20069;-79
2024/01/16 07:42:35;;;;;;;0.10;0.10;;;;;;;-5.64;92.10;99767.00;4988564;28;20033;-72
2024/01/16 07:45:06;;;;;;;0.10;0.10;;;;;;;-5.70;91.80;99754.41;4958158;28;20056;-77
2024/01/16 07:47:32;;;;;;;0.10;0.10;;;;;;;-5.43;91.83;99785.03;4974748;28;20029;-76
2024/01/16 07:49:58;;;;;;;0.10;0.10;;;;;;;-5.67;91.98;99757.53;4976390;28;20035;-76
2024/01/16 07:52:24;;;;;;;0.00;0.00;;;;;;;-5.54;91.67;99767.59;4998600;28;20383;-76
2024/01/16 07:54:49;;;;;;;0.10;0.10;;;;;;;-5.43;91.65;99785.84;4979550;28;20048;-78
2024/01/16 07:57:17;;;;;;;0.10;0.10;;;;;;;-5.66;91.38;99759.19;4993828;28;20030;-76
2024/01/16 07:59:58;;;;;;;0.10;0.10;;;;;;;-5.60;91.92;99749.66;4990932;28;20029;-76
2024/01/16 08:02:31;;;;;;;0.10;0.10;;;;;;;-5.47;92.22;99763.22;4986349;28;20117;-76
2024/01/16 08:04:56;;;;;;;0.10;0.10;;;;;;;-5.53;91.96;99747.94;4977892;28;20096;-76
2024/01/16 08:07:22;;;;;;;0.10;0.10;;;;;;;-5.53;92.27;99742.63;4970223;28;20086;-76
2024/01/16 08:09:48;;;;;;;0.03;0.03;;;;;;;-5.39;91.85;99753.50;4974526;28;20030;-75
2024/01/16 08:12:13;;;;;;;0.10;0.10;;;;;;;-5.36;92.25;99755.81;4984881;28;20019;-75
2024/01/16 08:14:46;;;;;;;0.10;0.10;;;;;;;-5.34;92.23;99751.16;4977506;28;20050;-77
2024/01/16 08:17:17;;;;;;;0.00;0.00;;;;;;;-5.30;91.84;99753.28;4977312;28;20026;-75
2024/01/16 08:19:45;;;;;;;0.10;0.10;;;;;;;-5.22;92.38;99770.22;4973235;28;20065;-74
2024/01/16 08:22:16;;;;;;;0.05;0.05;;;;;;;-5.03;91.76;99790.22;4973270;28;20045;-76
2024/01/16 08:24:41;;;;;;;0.00;0.00;;;;;;;-5.19;91.68;99759.19;4966636;28;20294;-75
2024/01/16 08:27:07;;;;;;;0.00;0.00;;;;;;;-4.93;91.78;99790.78;5006402;28;20017;-77
2024/01/16 08:29:33;;;;;;;0.10;0.10;;;;;;;-4.87;91.54;99790.06;4984511;28;20035;-75
2024/01/16 08:31:58;;;;;;;0.00;0.00;;;;;;;-4.85;91.39;99792.53;4977732;28;20083;-75
2024/01/16 08:34:24;;;;;;;0.10;0.10;;;;;;;-4.99;91.41;99764.84;4986859;28;20106;-75
2024/01/16 08:36:56;;;;;;;0.00;0.00;;;;;;;-4.96;91.82;99749.31;4973063;28;20037;-75
2024/01/16 08:39:22;;;;;;;0.00;0.00;;;;;;;-4.85;91.13;99761.34;4980033;28;20053;-75
2024/01/16 08:41:47;;;;;;;0.10;0.10;;;;;;;-4.88;91.69;99744.91;4969910;28;20030;-74
2024/01/16 08:44:13;;;;;;;0.10;0.10;;;;;;;-4.85;90.90;99737.34;4966132;28;20033;-75
2024/01/16 08:46:40;;;;;;;0.10;0.10;;;;;;;-4.70;91.05;99750.72;4979691;28;20035;-75
2024/01/16 08:49:06;;;;;;;0.00;0.00;;;;;;;-4.60;90.90;99747.75;4984189;28;20392;-76
2024/01/16 08:51:31;;;;;;;0.10;0.10;;;;;;;-4.52;91.17;99755.69;4987466;28;20030;-75
2024/01/16 08:53:57;;;;;;;0.10;0.10;;;;;;;-4.45;90.89;99756.63;4971496;28;20034;-76
2024/01/16 08:56:22;;;;;;;0.00;0.00;;;;;;;-4.40;90.52;99742.72;4966829;28;20073;-75
2024/01/16 08:58:48;;;;;;;0.10;0.10;;;;;;;-4.26;90.35;99760.56;4974739;28;20045;-74
2024/01/16 09:01:25;;;;;;;0.10;0.10;;;;;;;-4.19;90.60;99763.34;4977971;28;20022;-75
2024/01/16 09:03:51;;;;;;;0.10;0.10;;;;;;;-4.33;89.97;99721.44;4994546;28;20021;-74
2024/01/16 09:06:19;;;;;;;0.00;0.00;;;;;;;-4.19;89.86;99741.13;4995361;28;20028;-75
2024/01/16 09:08:46;;;;;;;0.00;0.00;;;;;;;-4.12;90.30;99744.69;4973194;28;20477;-75
2024/01/16 09:11:11;;;;;;;0.10;0.10;;;;;;;-4.12;89.70;99742.84;4973194;28;20373;-75
2024/01/16 09:13:39;;;;;;;0.10;0.10;;;;;;;-4.01;90.12;99744.22;4983554;28;20058;-74
2024/01/16 09:16:05;;;;;;;0.10;0.10;;;;;;;-3.88;89.88;99746.22;4990364;28;20081;-74
2024/01/16 09:18:30;;;;;;;0.10;0.10;;;;;;;-3.78;89.98;99746.75;4979657;28;20030;-73
2024/01/16 09:21:03;;;;;;;0.00;0.00;;;;;;;-3.78;89.46;99736.06;4979937;28;20081;-75
2024/01/16 09:23:29;;;;;;;0.00;0.00;;;;;;;-3.65;89.24;99739.88;5007587;28;20546;-74
2024/01/16 09:25:54;;;;;;;0.00;0.00;;;;;;;-3.41;88.85;99750.19;4979066;28;20043;-75
2024/01/16 09:28:29;;;;;;;;;;;;;;;;;;;;;
2024/01/16 09:31:05;;;;;;;0.00;0.00;;;;;;;-3.21;88.74;99742.38;5014715;28;20153;-74
2024/01/16 09:33:36;;;;;;;0.10;0.10;;;;;;;-2.95;89.47;99729.38;4987591;28;20050;-75
2024/01/16 09:36:02;;;;;;;0.10;0.10;;;;;;;-0.84;93.15;99730.47;5004997;28;20128;-75
2024/01/16 09:38:39;;;;;;;0.10;0.10;;;;;;;3.72;82.78;99727.53;4990024;28;21285;-76
2024/01/16 09:41:07;;;;;;;0.10;0.10;;;;;;;8.38;59.76;99738.03;4989475;28;20033;-75
2024/01/16 09:43:33;;;;;;;0.10;0.10;;;;;;;11.79;49.09;99738.38;4994688;28;20023;-75
2024/01/16 09:46:10;;;;;;;0.10;0.10;;;;;;;14.40;42.18;99732.53;4980002;28;20068;-75
2024/01/16 09:48:38;;;;;;;0.00;0.00;;;;;;;16.56;38.20;99737.19;4976101;28;20019;-76
2024/01/16 09:51:25;;;;;;;0.00;0.00;;;;;;;18.38;35.60;99734.31;4984723;28;20053;-76
2024/01/16 09:53:51;;;;;;;0.10;0.10;;;;;;;19.61;33.43;99723.00;4998657;28;20076;-78
2024/01/16 09:56:24;;;;;;;0.00;0.00;;;;;;;19.80;32.31;99718.88;5004529;28;20034;-78
2024/01/16 09:58:56;;;;;;;0.10;0.10;;;;;;;19.46;30.27;99704.25;4987555;28;20034;-77
2024/01/16 10:01:28;;;;;;;0.00;0.00;;;;;;;19.15;29.46;99725.75;4999888;28;20025;-78
2024/01/16 10:03:54;;;;;;;0.10;0.10;;;;;;;20.13;29.88;99720.75;4979564;28;20145;-77
2024/01/16 10:06:20;;;;;;;0.00;0.00;;;;;;;21.83;28.59;99737.50;4990414;28;20022;-78
2024/01/16 10:08:53;;;;;;;0.00;0.00;;;;;;;23.31;27.94;99730.50;5006284;28;20482;-78
2024/01/16 10:11:19;;;;;;;0.00;0.00;;;;;;;23.62;26.62;99703.53;4978763;28;20030;-78
2024/01/16 10:13:52;;;;;;;0.00;0.00;;;;;;;24.09;25.41;99707.91;4975179;28;20054;-77
2024/01/16 10:16:21;;;;;;;0.00;0.00;;;;;;;24.51;24.87;99714.53;4975219;28;20029;-75
2024/01/16 10:18:47;;;;;;;0.00;0.00;;;;;;;24.57;23.88;99713.84;5001713;28;20555;-77
2024/01/16 10:21:32;;;;;;;0.00;0.00;;;;;;;25.13;24.45;99699.34;4983303;28;20054;-78
2024/01/16 10:24:13;;;;;;;0.00;0.00;;;;;;;26.37;23.46;99712.06;4990922;28;20043;-77
2024/01/16 10:26:38;;;;;;;0.00;0.00;;;;;;;26.45;24.14;99718.50;5007783;28;20050;-78
2024/01/16 10:29:16;;;;;;;;;;;;;;;;;;;;;
2024/01/16 10:31:42;;;;;;;0.00;0.00;;;;;;;28.55;22.72;99710.06;4986642;28;20104;-77
2024/01/16 10:34:22;;;;;;;0.00;0.00;;;;;;;29.03;22.68;99717.16;4975761;28;20125;-76
2024/01/16 10:36:50;;;;;;;0.00;0.00;;;;;;;29.46;21.50;99720.97;4974045;28;20023;-78
2024/01/16 10:39:19;;;;;;;0.00;0.00;;;;;;;29.65;19.95;99695.06;4988356;28;20030;-78
2024/01/16 10:41:56;;;;;;;0.00;0.00;;;;;;;29.85;19.94;99686.88;4983582;28;20018;-76
2024/01/16 10:44:22;;;;;;;0.00;0.00;;;;;;;30.43;19.34;99684.31;4980128;28;20033;-77
2024/01/16 10:47:13;;;;;;;0.00;0.00;;;;;;;30.92;18.71;99683.31;4971966;28;20030;-77
2024/01/16 10:49:42;;;;;;;0.00;0.00;;;;;;;30.92;17.57;99674.84;4990482;28;20030;-77
2024/01/16 10:52:12;;;;;;;0.00;0.00;;;;;;;30.89;17.45;99692.63;4987554;28;20027;-77
2024/01/16 10:54:56;;;;;;;;;;;;;;;;;;;;;
2024/01/16 10:57:24;;;;;;;0.00;0.00;;;;;;;31.33;16.96;99671.84;5010266;28;20133;-77
2024/01/16 11:00:20;;;;;;;0.00;0.00;;;;;;;31.74;16.03;99689.81;4986560;28;20021;-76
2024/01/16 11:03:05;;;;;;;0.00;0.00;;;;;;;30.78;15.67;99662.53;4998625;28;20029;-76
2024/01/16 11:05:33;;;;;;;0.00;0.00;;;;;;;30.96;16.88;99678.44;4989933;28;20025;-77
2024/01/16 11:08:01;;;;;;;0.00;0.00;;;;;;;31.55;15.47;99639.66;5006165;28;20491;-77
2024/01/16 11:10:27;;;;;;;0.00;0.00;;;;;;;31.45;14.90;99650.72;4995249;28;20030;-76
2024/01/16 11:12:53;;;;;;;0.00;0.00;;;;;;;32.21;14.66;99657.13;5000952;28;20026;-76
2024/01/16 11:15:42;;;;;;;0.00;0.00;;;;;;;32.40;14.11;99633.69;5005229;28;20472;-76
2024/01/16 11:18:08;;;;;;;0.00;0.00;;;;;;;32.71;14.17;99633.50;4985911;28;20057;-76
2024/01/16 11:20:35;;;;;;;0.00;0.00;;;;;;;32.35;13.48;99623.69;5008093;28;20426;-77
2024/01/16 11:23:02;;;;;;;0.00;0.00;;;;;;;32.36;14.09;99624.50;4990050;28;20421;-76
2024/01/16 11:25:35;;;;;;;0.00;0.00;;;;;;;32.22;13.33;99621.97;4990673;28;20023;-76
2024/01/16 11:28:14;;;;;;;0.00;0.00;;;;;;;31.21;13.02;99626.50;4982859;28;20098;-76
2024/01/16 11:30:40;;;;;;;0.00;0.00;;;;;;;31.71;13.45;99636.19;4989926;28;20041;-78
2024/01/16 11:33:26;;;;;;;0.00;0.00;;;;;;;31.75;13.08;99615.13;4991750;28;20120;-76
2024/01/16 11:35:51;;;;;;;0.00;0.00;;;;;;;31.80;13.20;99620.25;4991796;28;20085;-77
2024/01/16 11:38:18;;;;;;;0.00;0.00;;;;;;;32.18;12.50;99607.88;4978834;28;20102;-77
2024/01/16 11:40:47;;;;;;;0.00;0.00;;;;;;;32.86;13.27;99612.13;4979169;28;20031;-77
2024/01/16 11:43:31;;;;;;;0.00;0.00;;;;;;;33.73;12.42;99610.84;4988544;28;20025;-76
2024/01/16 11:45:58;;;;;;;0.00;0.00;;;;;;;34.12;12.55;99599.69;4994236;28;20411;-77
2024/01/16 11:48:47;;;;;;;0.00;0.00;;;;;;;34.91;12.60;99593.78;4983547;28;20069;-76
2024/01/16 11:51:24;;;;;;;0.00;0.00;;;;;;;35.15;11.93;99608.44;4976034;28;20060;-77